createdAt,value
2023-02-21T00:01:47.349Z,9.00
2023-02-21T00:04:33.895Z,8.88
2023-02-21T00:07:19.193Z,9.07
2023-02-21T00:10:04.729Z,9.12
2023-02-21T00:12:50.052Z,9.19
2023-02-21T00:15:35.448Z,8.96
2023-02-21T00:18:20.670Z,9.16
2023-02-21T00:21:07.206Z,9.23
2023-02-21T00:23:53.116Z,9.28
2023-02-21T00:26:38.487Z,9.37
2023-02-21T00:29:23.915Z,9.05
2023-02-21T00:32:09.432Z,9.15
2023-02-21T00:34:57.256Z,9.03
2023-02-21T00:37:43.758Z,9.12
2023-02-21T00:40:31.065Z,8.84
2023-02-21T00:43:16.536Z,8.91
2023-02-21T00:46:01.888Z,8.89
2023-02-21T00:48:47.227Z,8.73
2023-02-21T00:51:32.531Z,8.75
2023-02-21T00:54:19.138Z,8.82
2023-02-21T00:57:04.598Z,8.96
2023-02-21T00:59:49.768Z,8.87
2023-02-21T01:02:35.141Z,8.78
2023-02-21T01:05:20.381Z,8.76
2023-02-21T01:08:05.556Z,9.06
2023-02-21T01:10:52.236Z,9.18
2023-02-21T01:13:37.343Z,9.25
2023-02-21T01:16:25.830Z,9.17
2023-02-21T01:19:10.925Z,9.09
2023-02-21T01:21:56.145Z,9.13
2023-02-21T01:24:41.343Z,9.10
2023-02-21T01:27:27.835Z,8.93
2023-02-21T01:30:13.215Z,8.91
2023-02-21T01:32:58.610Z,8.80
2023-02-21T01:35:43.728Z,9.11
2023-02-21T01:38:29.067Z,8.93
2023-02-21T01:41:14.752Z,8.87
2023-02-21T01:44:16.239Z,8.77
2023-02-21T01:47:01.679Z,8.89
2023-02-21T01:49:47.491Z,8.94
2023-02-21T01:52:32.636Z,8.82
2023-02-21T01:55:17.845Z,8.92
2023-02-21T01:58:04.847Z,8.89
2023-02-21T02:00:51.836Z,8.93
2023-02-21T02:03:39.316Z,8.93
2023-02-21T02:06:27.645Z,8.92
2023-02-21T02:09:12.981Z,8.77
2023-02-21T02:12:23.220Z,8.99
2023-02-21T02:15:19.453Z,8.90
2023-02-21T02:18:02.892Z,9.02
2023-02-21T02:20:52.801Z,9.06
2023-02-21T02:23:57.845Z,8.93
2023-02-21T02:26:49.995Z,9.06
2023-02-21T02:29:38.460Z,8.82
2023-02-21T02:32:26.292Z,8.83
2023-02-21T02:35:01.106Z,8.99
2023-02-21T02:37:33.948Z,9.07
2023-02-21T02:40:10.038Z,9.06
2023-02-21T02:42:49.966Z,9.05
2023-02-21T02:45:23.767Z,8.74
2023-02-21T02:47:56.404Z,8.80
2023-02-21T02:50:27.399Z,8.94
2023-02-21T02:52:56.547Z,8.78
2023-02-21T02:55:33.207Z,8.74
2023-02-21T02:58:02.631Z,8.84
2023-02-21T03:00:31.875Z,8.80
2023-02-21T03:03:31.812Z,8.85
2023-02-21T03:06:21.168Z,8.96
2023-02-21T03:08:58.098Z,9.07
2023-02-21T03:11:27.698Z,9.06
2023-02-21T03:14:00.512Z,9.02
2023-02-21T03:16:32.554Z,8.99
2023-02-21T03:19:05.243Z,8.82
2023-02-21T03:21:41.789Z,8.92
2023-02-21T03:24:11.538Z,9.00
2023-02-21T03:26:43.221Z,9.06
2023-02-21T03:29:12.459Z,9.15
2023-02-21T03:31:45.385Z,9.08
2023-02-21T03:34:13.162Z,9.24
2023-02-21T03:36:42.952Z,9.20
2023-02-21T03:39:10.500Z,9.24
2023-02-21T03:41:38.007Z,9.16
2023-02-21T03:44:05.770Z,9.20
2023-02-21T03:46:33.820Z,9.27
2023-02-21T03:49:01.360Z,9.14
2023-02-21T03:51:28.829Z,9.15
2023-02-21T03:53:57.649Z,9.08
2023-02-21T03:56:33.414Z,9.04
2023-02-21T03:59:07.912Z,9.19
2023-02-21T04:01:35.508Z,9.09
2023-02-21T04:04:02.985Z,9.08
2023-02-21T04:06:30.476Z,9.23
2023-02-21T04:08:59.303Z,9.19
2023-02-21T04:11:26.890Z,9.14
2023-02-21T04:13:54.474Z,9.24
2023-02-21T04:16:22.002Z,9.16
2023-02-21T04:18:49.546Z,9.05
2023-02-21T04:21:17.967Z,9.19
2023-02-21T04:23:45.500Z,9.20
2023-02-21T04:26:14.346Z,9.11
2023-02-21T04:28:41.825Z,9.14
2023-02-21T04:31:09.312Z,9.16
2023-02-21T04:33:37.009Z,9.12
2023-02-21T04:36:04.829Z,9.24
2023-02-21T04:38:32.535Z,9.16
2023-02-21T04:40:59.994Z,9.25
2023-02-21T04:43:28.815Z,9.21
2023-02-21T04:45:56.359Z,8.90
2023-02-21T04:48:23.860Z,8.93
2023-02-21T04:50:51.423Z,8.97
2023-02-21T04:53:19.061Z,9.14
2023-02-21T04:55:46.532Z,9.32
2023-02-21T04:58:14.064Z,9.26
2023-02-21T05:00:42.956Z,9.27
2023-02-21T05:03:10.522Z,9.09
2023-02-21T05:05:38.228Z,9.26
2023-02-21T05:08:05.785Z,9.15
2023-02-21T05:10:44.890Z,9.23
2023-02-21T05:13:13.179Z,9.24
2023-02-21T05:15:40.711Z,9.25
2023-02-21T05:18:09.768Z,9.34
2023-02-21T05:20:37.253Z,9.42
2023-02-21T05:23:13.445Z,9.50
2023-02-21T05:25:41.589Z,9.46
2023-02-21T05:28:09.126Z,9.46
2023-02-21T05:30:36.687Z,9.51
2023-02-21T05:33:05.392Z,9.43
2023-02-21T05:35:34.469Z,9.48
2023-02-21T05:38:02.236Z,9.35
2023-02-21T05:40:29.744Z,9.45
2023-02-21T05:42:57.354Z,9.50
2023-02-21T05:45:24.853Z,9.55
2023-02-21T05:47:56.186Z,9.47
2023-02-21T05:50:23.674Z,9.50
2023-02-21T05:52:52.521Z,9.40
2023-02-21T05:55:20.609Z,9.22
2023-02-21T05:57:48.145Z,9.34
2023-02-21T06:00:18.255Z,9.41
2023-02-21T06:02:45.878Z,9.43
2023-02-21T06:05:13.636Z,9.25
2023-02-21T06:07:41.143Z,9.38
2023-02-21T06:10:10.184Z,9.40
2023-02-21T06:12:37.903Z,9.33
2023-02-21T06:15:07.233Z,9.38
2023-02-21T06:17:34.813Z,9.50
2023-02-21T06:20:02.313Z,9.53
2023-02-21T06:22:29.819Z,9.46
2023-02-21T06:24:57.283Z,9.47
2023-02-21T06:27:26.199Z,9.43
2023-02-21T06:29:53.716Z,9.46
2023-02-21T06:32:21.237Z,9.42
2023-02-21T06:34:48.763Z,9.27
2023-02-21T06:37:16.257Z,9.25
2023-02-21T06:39:43.755Z,9.38
2023-02-21T06:42:13.913Z,9.34
2023-02-21T06:44:44.168Z,9.13
2023-02-21T06:47:11.667Z,9.36
2023-02-21T06:49:39.229Z,9.43
2023-02-21T06:52:07.187Z,9.42
2023-02-21T06:54:35.270Z,9.47
2023-02-21T06:57:02.799Z,9.04
2023-02-21T06:59:30.562Z,8.97
2023-02-21T07:01:59.491Z,9.11
2023-02-21T07:04:27.132Z,9.20
2023-02-21T07:06:55.371Z,9.33
2023-02-21T07:09:22.893Z,9.29
2023-02-21T07:11:51.414Z,9.25
2023-02-21T07:14:18.914Z,9.23
2023-02-21T07:16:46.396Z,9.22
2023-02-21T07:21:43.757Z,9.18
2023-02-21T07:24:11.295Z,9.24
2023-02-21T07:26:39.000Z,9.38
2023-02-21T07:29:07.533Z,9.23
2023-02-21T07:31:35.444Z,9.09
2023-02-21T07:34:04.159Z,9.19
2023-02-21T07:36:33.231Z,9.32
2023-02-21T07:39:00.756Z,9.17
2023-02-21T07:41:28.263Z,9.31
2023-02-21T07:43:56.191Z,9.34
2023-02-21T07:46:28.137Z,9.28
2023-02-21T07:48:55.778Z,9.25
2023-02-21T07:51:23.556Z,9.35
2023-02-21T07:53:52.562Z,9.42
2023-02-21T07:56:20.038Z,9.39
2023-02-21T07:58:47.815Z,9.49
2023-02-21T08:01:15.619Z,9.43
2023-02-21T08:03:43.518Z,9.43
2023-02-21T08:06:11.946Z,9.51
2023-02-21T08:08:39.785Z,9.33
2023-02-21T08:11:08.693Z,9.36
2023-02-21T08:13:36.204Z,9.45
2023-02-21T08:16:07.264Z,9.51
2023-02-21T08:18:34.752Z,9.47
2023-02-21T08:21:02.265Z,9.34
2023-02-21T08:23:29.868Z,9.54
2023-02-21T08:25:57.363Z,9.54
2023-02-21T08:28:26.206Z,9.33
2023-02-21T08:30:53.814Z,9.40
2023-02-21T08:33:32.529Z,9.48
2023-02-21T08:36:04.125Z,9.58
2023-02-21T08:38:31.742Z,9.56
2023-02-21T08:40:59.257Z,9.48
2023-02-21T08:43:30.303Z,9.41
2023-02-21T08:46:00.622Z,9.31
2023-02-21T08:48:28.231Z,9.21
2023-02-21T08:50:56.029Z,9.23
2023-02-21T08:53:26.288Z,9.42
2023-02-21T08:55:54.055Z,9.45
2023-02-21T08:58:49.370Z,9.50
2023-02-21T09:01:20.330Z,9.42
2023-02-21T09:03:49.385Z,9.35
2023-02-21T09:06:17.879Z,9.39
2023-02-21T09:08:55.448Z,9.35
2023-02-21T09:11:22.946Z,9.22
2023-02-21T09:13:52.984Z,9.23
2023-02-21T09:16:25.114Z,9.07
2023-02-21T09:18:56.852Z,9.19
2023-02-21T09:21:24.387Z,9.26
2023-02-21T09:23:53.939Z,9.31
2023-02-21T09:26:23.913Z,9.27
2023-02-21T09:28:53.349Z,9.44
2023-02-21T09:31:24.006Z,9.36
2023-02-21T09:33:51.552Z,9.56
2023-02-21T09:36:24.040Z,9.22
2023-02-21T09:38:53.560Z,9.38
2023-02-21T09:41:21.466Z,9.44
2023-02-21T09:43:52.008Z,9.53
2023-02-21T09:46:29.775Z,9.27
2023-02-21T09:48:57.776Z,9.27
2023-02-21T09:51:26.057Z,9.21
2023-02-21T09:53:56.964Z,9.13
2023-02-21T09:56:29.504Z,9.40
2023-02-21T09:58:58.850Z,9.47
2023-02-21T10:01:44.010Z,9.40
2023-02-21T10:04:22.468Z,9.16
2023-02-21T10:06:56.259Z,9.30
2023-02-21T10:09:31.609Z,9.55
2023-02-21T10:12:06.841Z,9.63
2023-02-21T10:14:51.276Z,9.35
2023-02-21T10:17:24.456Z,9.54
2023-02-21T10:19:55.653Z,9.64
2023-02-21T10:22:27.953Z,9.67
2023-02-21T10:24:55.877Z,9.65
2023-02-21T10:27:27.379Z,9.58
2023-02-21T10:29:58.522Z,9.32
2023-02-21T10:32:28.232Z,9.40
2023-02-21T10:34:56.195Z,9.54
2023-02-21T10:37:34.259Z,9.52
2023-02-21T10:40:08.210Z,9.45
2023-02-21T10:42:40.875Z,9.50
2023-02-21T10:45:09.860Z,9.74
2023-02-21T10:47:51.922Z,9.73
2023-02-21T10:50:39.148Z,9.75
2023-02-21T10:53:07.716Z,9.90
2023-02-21T10:55:36.036Z,9.84
2023-02-21T10:58:09.921Z,9.82
2023-02-21T11:00:42.104Z,9.79
2023-02-21T11:03:23.892Z,9.62
2023-02-21T11:05:54.172Z,9.78
2023-02-21T11:08:37.631Z,9.61
2023-02-21T11:11:05.574Z,9.59
2023-02-21T11:13:35.981Z,9.63
2023-02-21T11:16:12.556Z,9.67
2023-02-21T11:18:41.454Z,9.68
2023-02-21T11:21:15.197Z,9.65
2023-02-21T11:23:46.929Z,9.84
2023-02-21T11:26:16.784Z,9.86
2023-02-21T11:28:47.906Z,10.15
2023-02-21T11:31:27.459Z,10.42
2023-02-21T11:34:00.476Z,10.42
2023-02-21T11:36:31.326Z,10.46
2023-02-21T11:39:06.004Z,10.40
2023-02-21T11:41:39.423Z,10.38
2023-02-21T11:44:29.968Z,10.39
2023-02-21T11:47:06.351Z,10.47
2023-02-21T11:49:45.146Z,10.61
2023-02-21T11:52:20.211Z,10.41
2023-02-21T11:54:47.711Z,10.33
2023-02-21T11:57:22.971Z,10.51
2023-02-21T11:59:56.711Z,10.58
2023-02-21T12:02:54.822Z,10.69
2023-02-21T12:05:35.311Z,10.61
2023-02-21T12:08:23.043Z,10.51
2023-02-21T12:10:59.137Z,10.66
2023-02-21T12:13:36.274Z,10.71
2023-02-21T12:16:12.896Z,10.74
2023-02-21T12:18:57.920Z,10.78
2023-02-21T12:21:56.541Z,10.88
2023-02-21T12:24:35.712Z,10.83
2023-02-21T12:27:12.399Z,10.82
2023-02-21T12:29:57.134Z,10.81
2023-02-21T12:32:38.241Z,10.84
2023-02-21T12:35:33.980Z,10.78
2023-02-21T12:38:08.140Z,10.53
2023-02-21T12:40:49.328Z,10.46
2023-02-21T12:43:32.536Z,10.61
2023-02-21T12:46:08.590Z,10.72
2023-02-21T12:48:55.010Z,10.82
2023-02-21T12:51:26.894Z,10.80
2023-02-21T12:54:00.913Z,10.83
2023-02-21T12:56:33.968Z,10.75
2023-02-21T13:02:02.751Z,10.74
2023-02-21T13:04:42.473Z,10.73
2023-02-21T13:07:19.121Z,10.72
2023-02-21T13:09:55.448Z,10.73
2023-02-21T13:12:37.183Z,10.75
2023-02-21T13:15:17.207Z,10.78
2023-02-21T13:17:56.482Z,10.93
2023-02-21T13:20:30.983Z,10.97
2023-02-21T13:23:40.642Z,11.02
2023-02-21T13:26:33.637Z,10.96
2023-02-21T13:31:53.089Z,10.91
2023-02-21T13:34:35.941Z,11.01
2023-02-21T13:37:16.592Z,11.08
2023-02-21T13:39:47.426Z,11.08
2023-02-21T13:42:20.387Z,11.10
2023-02-21T13:44:51.700Z,11.06
2023-02-21T13:47:21.511Z,10.86
2023-02-21T13:49:51.861Z,10.95
2023-02-21T13:52:57.570Z,11.02
2023-02-21T13:55:27.249Z,10.95
2023-02-21T13:58:27.214Z,10.94
2023-02-21T14:00:57.993Z,11.01
2023-02-21T14:03:34.725Z,10.99
2023-02-21T14:06:29.352Z,10.99
2023-02-21T14:09:01.268Z,10.99
2023-02-21T14:11:32.054Z,10.97
2023-02-21T14:14:03.073Z,10.76
2023-02-21T14:16:35.525Z,10.72
2023-02-21T14:19:07.723Z,10.75
2023-02-21T14:21:37.833Z,10.84
2023-02-21T14:24:12.226Z,10.97
2023-02-21T14:26:51.673Z,10.79
2023-02-21T14:29:35.120Z,10.60
2023-02-21T14:32:35.604Z,10.60
2023-02-21T14:35:22.064Z,10.63
2023-02-21T14:37:54.513Z,10.76
2023-02-21T14:40:34.572Z,10.84
2023-02-21T14:43:17.629Z,10.91
2023-02-21T14:46:07.195Z,10.78
2023-02-21T14:48:52.401Z,10.86
2023-02-21T14:51:54.303Z,10.88
2023-02-21T14:54:57.533Z,10.79
2023-02-21T14:57:43.911Z,10.71
2023-02-21T15:00:23.776Z,10.78
2023-02-21T15:02:57.854Z,10.59
2023-02-21T15:05:31.358Z,10.63
2023-02-21T15:08:05.792Z,10.67
2023-02-21T15:10:40.502Z,10.61
2023-02-21T15:13:20.975Z,10.58
2023-02-21T15:15:48.509Z,10.61
2023-02-21T15:18:27.011Z,10.68
2023-02-21T15:21:19.396Z,10.75
2023-02-21T15:23:48.879Z,10.78
2023-02-21T15:26:19.687Z,10.69
2023-02-21T15:28:47.193Z,10.54
2023-02-21T15:31:16.457Z,10.63
2023-02-21T15:33:45.177Z,10.69
2023-02-21T15:36:19.562Z,10.64
2023-02-21T15:38:50.801Z,10.69
2023-02-21T15:41:28.619Z,10.72
2023-02-21T15:44:00.886Z,10.76
2023-02-21T15:46:35.116Z,10.67
2023-02-21T15:49:04.699Z,10.69
2023-02-21T15:51:33.973Z,10.71
2023-02-21T15:54:23.317Z,10.74
2023-02-21T15:57:07.881Z,10.66
2023-02-21T15:59:37.533Z,10.69
2023-02-21T16:02:14.605Z,10.66
2023-02-21T16:04:44.110Z,10.63
2023-02-21T16:07:21.342Z,10.64
2023-02-21T16:09:51.296Z,10.67
2023-02-21T16:12:31.998Z,10.67
2023-02-21T16:15:01.872Z,10.60
2023-02-21T16:17:33.044Z,10.63
2023-02-21T16:20:05.230Z,10.61
2023-02-21T16:22:53.953Z,10.60
2023-02-21T16:25:25.611Z,10.64
2023-02-21T16:27:54.408Z,10.60
2023-02-21T16:30:23.978Z,10.57
2023-02-21T16:32:53.389Z,10.60
2023-02-21T16:35:23.208Z,10.55
2023-02-21T16:37:54.434Z,10.57
2023-02-21T16:40:24.934Z,10.58
2023-02-21T16:42:53.943Z,10.55
2023-02-21T16:45:22.090Z,10.57
2023-02-21T16:47:51.995Z,10.55
2023-02-21T16:50:23.681Z,10.54
2023-02-21T16:52:52.513Z,10.52
2023-02-21T16:55:20.867Z,10.53
2023-02-21T16:57:49.716Z,10.52
2023-02-21T17:00:21.041Z,10.52
2023-02-21T17:02:49.173Z,10.50
2023-02-21T17:05:17.054Z,10.49
2023-02-21T17:07:44.917Z,10.48
2023-02-21T17:10:13.989Z,10.49
2023-02-21T17:12:41.697Z,10.48
2023-02-21T17:15:10.837Z,10.47
2023-02-21T17:17:38.686Z,10.46
2023-02-21T17:20:07.928Z,10.43
2023-02-21T17:22:37.332Z,10.44
2023-02-21T17:25:05.375Z,10.47
2023-02-21T17:27:34.468Z,10.45
2023-02-21T17:30:01.982Z,10.44
2023-02-21T17:32:30.625Z,10.43
2023-02-21T17:34:58.175Z,10.44
2023-02-21T17:37:25.642Z,10.37
2023-02-21T17:39:54.245Z,10.39
2023-02-21T17:42:22.194Z,10.36
2023-02-21T17:44:51.808Z,10.39
2023-02-21T17:47:19.980Z,10.36
2023-02-21T17:49:48.923Z,10.38
2023-02-21T17:52:17.140Z,10.41
2023-02-21T17:54:44.836Z,10.38
2023-02-21T17:57:12.682Z,10.38
2023-02-21T17:59:40.676Z,10.36
2023-02-21T18:02:09.485Z,10.41
2023-02-21T18:04:37.342Z,10.40
2023-02-21T18:07:04.869Z,10.39
2023-02-21T18:09:32.857Z,10.37
2023-02-21T18:12:01.576Z,10.33
2023-02-21T18:14:32.126Z,10.32
2023-02-21T18:16:59.886Z,10.30
2023-02-21T18:19:29.549Z,10.29
2023-02-21T18:21:57.105Z,10.28
2023-02-21T18:24:25.430Z,10.29
2023-02-21T18:26:52.917Z,10.27
2023-02-21T18:29:20.443Z,10.23
2023-02-21T18:31:54.066Z,10.23
2023-02-21T18:34:22.014Z,10.20
2023-02-21T18:36:52.516Z,10.21
2023-02-21T18:39:21.745Z,10.19
2023-02-21T18:41:49.822Z,10.18
2023-02-21T18:44:17.420Z,10.22
2023-02-21T18:46:50.757Z,10.16
2023-02-21T18:49:18.323Z,10.17
2023-02-21T18:51:45.830Z,10.15
2023-02-21T18:54:14.777Z,10.16
2023-02-21T18:56:48.773Z,10.21
2023-02-21T18:59:16.537Z,10.18
2023-02-21T19:01:44.282Z,10.16
2023-02-21T19:04:13.006Z,10.18
2023-02-21T19:06:40.505Z,10.18
2023-02-21T19:09:08.023Z,10.14
2023-02-21T19:11:36.897Z,10.16
2023-02-21T19:14:05.624Z,10.17
2023-02-21T19:16:33.889Z,10.15
2023-02-21T19:19:03.274Z,10.14
2023-02-21T19:21:31.833Z,10.16
2023-02-21T19:23:59.739Z,10.15
2023-02-21T19:26:30.204Z,10.12
2023-02-21T19:28:59.135Z,10.07
2023-02-21T19:31:27.290Z,10.05
2023-02-21T19:33:55.096Z,10.09
2023-02-21T19:36:23.254Z,10.07
2023-02-21T19:38:50.824Z,10.08
2023-02-21T19:41:19.980Z,10.05
2023-02-21T19:43:47.964Z,10.06
2023-02-21T19:46:25.131Z,10.12
2023-02-21T19:48:53.356Z,10.09
2023-02-21T19:51:23.696Z,10.10
2023-02-21T19:53:51.262Z,10.11
2023-02-21T19:56:19.063Z,10.08
2023-02-21T19:58:47.252Z,10.11
2023-02-21T20:01:15.208Z,10.09
2023-02-21T20:03:44.487Z,10.09
2023-02-21T20:06:12.041Z,10.08
2023-02-21T20:08:39.514Z,10.08
2023-02-21T20:11:07.320Z,10.07
2023-02-21T20:13:37.124Z,10.09
2023-02-21T20:16:04.879Z,10.00
2023-02-21T20:18:32.418Z,10.02
2023-02-21T20:21:01.241Z,10.03
2023-02-21T20:23:28.740Z,10.00
2023-02-21T20:25:56.572Z,10.00
2023-02-21T20:28:24.113Z,10.07
2023-02-21T20:30:51.817Z,10.10
2023-02-21T20:33:20.594Z,10.05
2023-02-21T20:35:48.158Z,10.09
2023-02-21T20:38:16.999Z,10.08
2023-02-21T20:40:45.833Z,10.08
2023-02-21T20:43:13.624Z,10.07
2023-02-21T20:45:41.215Z,10.05
2023-02-21T20:48:10.916Z,10.03
2023-02-21T20:50:39.420Z,10.02
2023-02-21T20:53:06.916Z,10.00
2023-02-21T20:55:37.375Z,9.98
2023-02-21T20:58:05.617Z,9.97
2023-02-21T21:00:36.506Z,10.00
2023-02-21T21:03:05.108Z,9.99
2023-02-21T21:05:33.118Z,9.97
2023-02-21T21:08:01.515Z,9.98
2023-02-21T21:10:29.152Z,9.94
2023-02-21T21:12:58.247Z,9.90
2023-02-21T21:15:26.072Z,9.88
2023-02-21T21:17:53.616Z,9.91
2023-02-21T21:20:23.072Z,9.94
2023-02-21T21:22:51.117Z,9.90
2023-02-21T21:25:18.891Z,9.92
2023-02-21T21:27:47.352Z,9.90
2023-02-21T21:30:22.432Z,9.91
2023-02-21T21:32:50.274Z,9.89
2023-02-21T21:35:19.697Z,9.87
2023-02-21T21:37:47.685Z,9.87
2023-02-21T21:40:16.678Z,9.87
2023-02-21T21:42:45.929Z,9.85
2023-02-21T21:45:19.276Z,9.86
2023-02-21T21:47:47.587Z,9.82
2023-02-21T21:50:16.471Z,9.81
2023-02-21T21:52:44.751Z,9.85
2023-02-21T21:55:18.780Z,9.76
2023-02-21T21:57:53.140Z,9.76
2023-02-21T22:00:24.601Z,9.74
2023-02-21T22:02:56.942Z,9.78
2023-02-21T22:05:25.590Z,9.72
2023-02-21T22:07:53.303Z,9.73
2023-02-21T22:10:21.921Z,9.75
2023-02-21T22:12:50.848Z,9.74
2023-02-21T22:15:20.343Z,9.70
2023-02-21T22:17:49.838Z,9.70
2023-02-21T22:20:19.698Z,9.67
2023-02-21T22:22:48.920Z,9.66
2023-02-21T22:25:17.178Z,9.59
2023-02-21T22:27:44.687Z,9.64
2023-02-21T22:30:15.221Z,9.70
2023-02-21T22:32:43.423Z,9.69
2023-02-21T22:35:18.146Z,9.68
2023-02-21T22:37:47.464Z,9.67
2023-02-21T22:40:23.805Z,9.68
2023-02-21T22:42:52.356Z,9.65
2023-02-21T22:45:21.865Z,9.65
2023-02-21T22:47:50.435Z,9.58
2023-02-21T22:50:20.938Z,9.62
2023-02-21T22:52:51.031Z,9.61
2023-02-21T22:55:18.711Z,9.62
2023-02-21T22:57:46.365Z,9.63
2023-02-21T23:00:20.029Z,9.61
2023-02-21T23:02:48.533Z,9.62
2023-02-21T23:05:19.606Z,9.62
2023-02-21T23:07:50.114Z,9.59
2023-02-21T23:10:19.516Z,9.56
2023-02-21T23:12:48.123Z,9.54
2023-02-21T23:15:18.282Z,9.52
2023-02-21T23:17:48.012Z,9.51
2023-02-21T23:20:22.025Z,9.53
2023-02-21T23:22:53.729Z,9.49
2023-02-21T23:25:25.367Z,9.45
2023-02-21T23:27:55.923Z,9.44
2023-02-21T23:30:27.496Z,9.43
2023-02-21T23:32:56.473Z,9.38
2023-02-21T23:35:24.181Z,9.38
2023-02-21T23:37:53.293Z,9.40
2023-02-21T23:40:27.866Z,9.34
2023-02-21T23:42:56.196Z,9.33
2023-02-21T23:45:26.252Z,9.32
2023-02-21T23:47:56.272Z,9.27
2023-02-21T23:50:30.328Z,9.26
2023-02-21T23:52:59.835Z,9.26
2023-02-21T23:55:29.866Z,9.28
2023-02-21T23:58:01.890Z,9.25
